Time;durP1;ratioP1;P1;durP2;ratioP2;P2;SDS_P1;SDS_P2;PMS_P1;PMS_P2;Temp;Humidity;BMP_temperature;BMP_pressure;BME280_temperature;BME280_humidity;BME280_pressure;Samples;Min_cycle;Max_cycle;Signal;HPM_P1;HPM_P2
2022/11/08 00:01:30;;;;;;;5.63;3.07;;;20.80;59.60;;;;;;6211969;23;20162;-87
2022/11/08 00:03:09;;;;;;;3.50;3.10;;;20.80;59.60;;;;;;6212291;23;20378;-87
2022/11/08 00:14:05;;;;;;;4.80;3.23;;;20.80;59.60;;;;;;6212057;23;20447;-87
2022/11/08 00:16:31;;;;;;;6.10;3.40;;;20.80;59.60;;;;;;6212004;23;20406;-86
2022/11/08 00:18:57;;;;;;;4.10;3.03;;;20.80;59.60;;;;;;6213047;23;20367;-87
2022/11/08 00:21:23;;;;;;;3.90;3.37;;;20.80;59.60;;;;;;6188133;23;20375;-87
2022/11/08 00:23:49;;;;;;;6.80;3.37;;;20.80;59.60;;;;;;6213994;23;20375;-87
2022/11/08 00:26:14;;;;;;;4.40;3.03;;;20.80;60.20;;;;;;6188069;23;20174;-86
2022/11/08 00:28:40;;;;;;;5.20;3.20;;;20.80;59.60;;;;;;6188539;23;20162;-87
2022/11/08 00:31:06;;;;;;;4.90;3.53;;;20.80;59.50;;;;;;6214135;23;20135;-87
2022/11/08 00:33:32;;;;;;;5.43;3.13;;;20.80;59.50;;;;;;6213788;23;20149;-86
2022/11/08 00:35:58;;;;;;;4.40;2.90;;;20.80;59.50;;;;;;6213941;23;20434;-86
2022/11/08 00:38:24;;;;;;;6.70;3.40;;;20.80;59.50;;;;;;6187853;23;20132;-87
2022/11/08 00:40:50;;;;;;;5.77;3.33;;;20.80;59.50;;;;;;6187771;23;20376;-86
2022/11/08 00:43:18;;;;;;;4.33;3.03;;;20.80;59.50;;;;;;6188031;23;20193;-86
2022/11/08 00:45:44;;;;;;;5.70;3.60;;;20.70;59.50;;;;;;6214187;23;20191;-86
2022/11/08 00:48:12;;;;;;;4.20;2.60;;;20.80;59.50;;;;;;6213800;23;20363;-86
2022/11/08 00:50:38;;;;;;;5.77;3.10;;;20.80;59.50;;;;;;6187788;23;20575;-85
2022/11/08 00:53:04;;;;;;;5.93;2.80;;;20.80;59.50;;;;;;6213764;23;20418;-87
2022/11/08 00:55:30;;;;;;;7.30;3.30;;;20.70;59.50;;;;;;6213754;23;20403;-87
2022/11/08 00:57:56;;;;;;;2.70;2.40;;;20.80;59.50;;;;;;6188235;23;20140;-87
2022/11/08 01:00:25;;;;;;;4.47;3.50;;;20.70;59.50;;;;;;6187986;23;20383;-87
2022/11/08 01:03:32;;;;;;;5.20;3.43;;;20.70;59.50;;;;;;6213430;23;20150;-87
2022/11/08 01:05:42;;;;;;;4.33;2.60;;;20.70;59.50;;;;;;6202366;23;20363;-87
2022/11/08 01:08:11;;;;;;;5.53;2.97;;;20.70;59.50;;;;;;6187560;23;20402;-86
2022/11/08 01:10:41;;;;;;;3.20;2.60;;;20.70;59.50;;;;;;6213659;23;20355;-87
2022/11/08 01:13:10;;;;;;;3.60;2.33;;;20.70;59.50;;;;;;6187808;23;20363;-87
2022/11/08 01:15:40;;;;;;;4.40;2.80;;;20.70;59.50;;;;;;6213746;23;20399;-86
2022/11/08 01:18:06;;;;;;;4.57;3.20;;;20.70;59.50;;;;;;6188216;23;20366;-87
2022/11/08 01:20:36;;;;;;;5.13;3.40;;;20.70;59.50;;;;;;6188248;23;20383;-86
2022/11/08 01:23:17;;;;;;;;;;;;;;;;;;;;;
2022/11/08 01:25:46;;;;;;;5.13;3.03;;;20.70;59.50;;;;;;6213482;23;20344;-86
2022/11/08 01:28:12;;;;;;;4.13;3.20;;;20.70;59.50;;;;;;6187829;23;20371;-87
2022/11/08 01:30:40;;;;;;;4.00;2.80;;;20.70;59.50;;;;;;6186934;23;20405;-87
2022/11/08 01:33:08;;;;;;;5.50;3.13;;;20.80;59.60;;;;;;6213537;23;20359;-87
2022/11/08 01:35:40;;;;;;;4.27;2.97;;;20.80;59.60;;;;;;6187815;23;20415;-87
2022/11/08 01:38:06;;;;;;;4.53;2.80;;;20.70;59.50;;;;;;6213476;23;20605;-87
2022/11/08 01:40:32;;;;;;;4.20;3.00;;;20.70;60.00;;;;;;6187750;23;20375;-87
2022/11/08 01:43:17;;;;;;;7.57;3.80;;;20.70;59.50;;;;;;6213427;23;20359;-87
2022/11/08 01:46:08;;;;;;;5.63;3.00;;;20.80;59.60;;;;;;6187506;23;20373;-87
2022/11/08 01:48:34;;;;;;;4.13;2.70;;;20.70;59.50;;;;;;6187332;23;20381;-87
2022/11/08 01:51:00;;;;;;;3.77;3.13;;;20.70;59.50;;;;;;6187420;23;20431;-87
2022/11/08 01:53:29;;;;;;;5.90;2.60;;;20.70;59.50;;;;;;6212876;23;20376;-87
2022/11/08 01:55:58;;;;;;;5.97;3.60;;;20.70;59.50;;;;;;6187381;23;20168;-87
2022/11/08 01:58:29;;;;;;;4.30;3.33;;;20.70;59.50;;;;;;6187318;23;20393;-87
2022/11/08 02:00:58;;;;;;;4.10;2.93;;;20.70;59.50;;;;;;6187853;23;20367;-87
2022/11/08 02:03:24;;;;;;;5.23;2.90;;;20.70;59.50;;;;;;6187134;23;20376;-87
2022/11/08 02:05:50;;;;;;;6.73;3.40;;;20.70;59.50;;;;;;6187337;23;20406;-86
2022/11/08 02:08:35;;;;;;;4.90;3.13;;;20.70;60.10;;;;;;6212953;23;20194;-87
2022/11/08 02:11:02;;;;;;;5.40;2.70;;;20.70;59.50;;;;;;6212996;23;20228;-87
2022/11/08 02:13:30;;;;;;;3.90;2.70;;;20.70;59.50;;;;;;6213011;23;20378;-87
2022/11/08 02:15:56;;;;;;;3.57;2.73;;;20.70;59.50;;;;;;6212604;23;20411;-87
2022/11/08 02:18:26;;;;;;;4.60;2.73;;;20.70;59.50;;;;;;6187410;23;20379;-87
2022/11/08 02:21:12;;;;;;;3.27;2.70;;;20.70;59.50;;;;;;6212932;23;20356;-86
2022/11/08 02:23:44;;;;;;;2.60;2.40;;;20.70;59.50;;;;;;6212928;23;20369;-87
2022/11/08 02:26:10;;;;;;;4.63;2.77;;;20.70;59.50;;;;;;6212346;23;20391;-86
2022/11/08 02:28:46;;;;;;;6.80;3.07;;;20.70;59.50;;;;;;6212620;23;20397;-87
2022/11/08 02:31:15;;;;;;;4.07;2.43;;;20.70;59.50;;;;;;6212686;23;20366;-86
2022/11/08 02:33:41;;;;;;;3.00;2.50;;;20.70;59.50;;;;;;6186924;23;20364;-87
2022/11/08 02:36:10;;;;;;;4.77;3.17;;;20.70;59.50;;;;;;6212696;23;20417;-86
2022/11/08 02:38:40;;;;;;;3.40;2.53;;;20.70;59.50;;;;;;6212568;23;20395;-86
2022/11/08 02:41:06;;;;;;;4.17;3.27;;;20.70;59.50;;;;;;6186958;23;20375;-86
2022/11/08 02:43:32;;;;;;;4.33;2.70;;;20.70;59.50;;;;;;6186758;23;20377;-86
2022/11/08 02:45:58;;;;;;;6.03;2.70;;;20.70;59.50;;;;;;6186895;23;20585;-85
2022/11/08 02:48:24;;;;;;;3.00;2.27;;;20.70;59.50;;;;;;6186812;23;20155;-86
2022/11/08 02:50:51;;;;;;;4.27;2.90;;;20.70;59.50;;;;;;6212361;23;20398;-87
2022/11/08 02:53:17;;;;;;;6.90;2.83;;;20.70;59.50;;;;;;6186878;23;20376;-87
2022/11/08 02:55:44;;;;;;;4.67;2.70;;;20.70;59.50;;;;;;6212763;23;20398;-87
2022/11/08 02:58:10;;;;;;;3.90;2.87;;;20.70;59.50;;;;;;6212621;23;20385;-87
2022/11/08 03:00:37;;;;;;;5.33;3.03;;;20.70;59.50;;;;;;6186729;23;20382;-87
2022/11/08 03:03:03;;;;;;;3.70;2.97;;;20.70;59.50;;;;;;6186824;23;20386;-86
2022/11/08 03:05:29;;;;;;;5.00;3.50;;;20.70;59.50;;;;;;6186185;23;20435;-87
2022/11/08 03:07:55;;;;;;;3.80;2.83;;;20.70;59.50;;;;;;6212486;23;20155;-86
2022/11/08 03:10:22;;;;;;;5.17;2.90;;;20.70;59.50;;;;;;6186965;23;20358;-86
2022/11/08 03:13:02;;;;;;;3.03;2.10;;;20.70;59.50;;;;;;6186805;23;20450;-86
2022/11/08 03:15:29;;;;;;;4.20;2.70;;;20.70;59.50;;;;;;6212245;23;20409;-86
2022/11/08 03:17:55;;;;;;;2.60;1.97;;;20.70;59.50;;;;;;6212569;23;20367;-86
2022/11/08 03:20:21;;;;;;;3.63;2.30;;;20.70;59.50;;;;;;6186770;23;20382;-86
2022/11/08 03:22:47;;;;;;;5.70;2.83;;;20.70;59.50;;;;;;6186653;23;20395;-86
2022/11/08 03:25:12;;;;;;;3.67;2.57;;;20.70;59.50;;;;;;6212393;23;20150;-85
2022/11/08 03:27:38;;;;;;;4.27;3.00;;;20.70;59.40;;;;;;6186579;23;20245;-86
2022/11/08 03:30:05;;;;;;;4.10;2.57;;;20.70;59.40;;;;;;6186326;23;20179;-85
2022/11/08 03:32:31;;;;;;;2.77;2.20;;;20.70;59.40;;;;;;6186505;23;20148;-86
2022/11/08 03:34:58;;;;;;;3.37;2.40;;;20.70;59.40;;;;;;6186565;23;20487;-85
2022/11/08 03:37:26;;;;;;;3.83;2.73;;;20.70;60.00;;;;;;6212601;23;20151;-85
2022/11/08 03:39:52;;;;;;;2.50;2.30;;;20.70;59.50;;;;;;6212470;23;20354;-86
2022/11/08 03:42:18;;;;;;;3.10;2.70;;;20.70;59.50;;;;;;6212250;23;20418;-87
2022/11/08 03:44:43;;;;;;;3.47;2.50;;;20.70;59.50;;;;;;6186423;23;20152;-86
2022/11/08 03:47:09;;;;;;;3.63;2.70;;;20.70;59.50;;;;;;6212146;23;20171;-86
2022/11/08 03:49:35;;;;;;;3.00;2.10;;;20.70;59.50;;;;;;6212092;23;20166;-87
2022/11/08 03:52:01;;;;;;;3.83;2.60;;;20.70;59.50;;;;;;6186432;23;20187;-87
2022/11/08 03:54:26;;;;;;;3.30;2.73;;;20.70;59.50;;;;;;6188988;23;20199;-85
2022/11/08 03:56:52;;;;;;;4.10;2.77;;;20.70;59.50;;;;;;6215586;23;20135;-86
2022/11/08 03:59:18;;;;;;;3.60;2.30;;;20.70;59.50;;;;;;6215737;23;20196;-86
2022/11/08 04:01:43;;;;;;;2.57;2.20;;;20.70;59.50;;;;;;6189830;23;20143;-86
2022/11/08 04:04:09;;;;;;;5.20;3.03;;;20.70;59.50;;;;;;6189645;23;20171;-86
2022/11/08 04:06:35;;;;;;;2.80;2.50;;;20.70;59.50;;;;;;6189735;23;20183;-87
2022/11/08 04:09:01;;;;;;;4.00;2.37;;;20.70;59.50;;;;;;6189760;23;20170;-86
2022/11/08 04:16:55;;;;;;;4.53;2.37;;;20.70;59.50;;;;;;6215296;23;20422;-87
2022/11/08 04:22:11;;;;;;;3.73;2.53;;;20.70;59.50;;;;;;6215606;23;20147;-86
2022/11/08 04:24:37;;;;;;;3.83;2.80;;;20.70;59.50;;;;;;6215331;23;20358;-86
2022/11/08 04:27:03;;;;;;;3.90;2.40;;;20.70;59.50;;;;;;6215613;23;20362;-87
2022/11/08 04:29:29;;;;;;;3.60;2.60;;;20.70;59.50;;;;;;6190027;23;20163;-87
2022/11/08 04:31:55;;;;;;;4.40;2.83;;;20.70;59.50;;;;;;6215464;23;20199;-87
2022/11/08 04:34:21;;;;;;;4.13;2.70;;;20.70;59.50;;;;;;6189436;23;20415;-87
2022/11/08 04:36:46;;;;;;;3.30;2.60;;;20.60;59.40;;;;;;6189738;23;20204;-87
2022/11/08 04:39:12;;;;;;;3.80;2.60;;;20.60;59.40;;;;;;6215574;23;20144;-86
2022/11/08 04:41:38;;;;;;;5.30;3.00;;;20.60;59.40;;;;;;6215524;23;20147;-87
2022/11/08 04:44:04;;;;;;;6.00;3.77;;;20.60;59.40;;;;;;6215113;23;20243;-87
2022/11/08 04:46:30;;;;;;;1.93;1.73;;;20.70;59.50;;;;;;6189507;23;20363;-87
2022/11/08 04:48:59;;;;;;;2.60;2.20;;;20.70;59.50;;;;;;6189428;23;20398;-86
2022/11/08 04:51:30;;;;;;;4.60;2.47;;;20.70;60.00;;;;;;6189683;23;20154;-86
2022/11/08 04:53:58;;;;;;;2.73;2.43;;;20.70;59.50;;;;;;6189755;23;20410;-86
2022/11/08 04:56:26;;;;;;;2.20;1.97;;;20.70;59.50;;;;;;6215339;23;20466;-86
2022/11/08 04:58:54;;;;;;;3.53;2.60;;;20.60;59.40;;;;;;6189348;23;20386;-87
2022/11/08 05:01:22;;;;;;;3.67;2.10;;;20.60;59.40;;;;;;6189163;23;20426;-87
2022/11/08 05:03:53;;;;;;;3.07;2.27;;;20.70;59.40;;;;;;6189794;23;20373;-86
2022/11/08 05:06:25;;;;;;;2.53;2.00;;;20.70;59.40;;;;;;6188163;23;20363;-86
2022/11/08 05:08:53;;;;;;;3.70;2.00;;;20.60;59.40;;;;;;6187157;23;20406;-86
2022/11/08 05:11:21;;;;;;;3.17;2.40;;;20.60;59.40;;;;;;6213549;23;20402;-87
2022/11/08 05:13:48;;;;;;;4.10;2.50;;;20.60;59.40;;;;;;6213468;23;20374;-86
2022/11/08 05:16:16;;;;;;;3.60;2.50;;;20.60;59.40;;;;;;6213238;23;20415;-86
2022/11/08 05:18:43;;;;;;;4.20;2.30;;;20.60;59.40;;;;;;6187673;23;20375;-88
2022/11/08 05:23:57;;;;;;;2.70;2.20;;;20.60;59.40;;;;;;6213824;23;20663;-86
2022/11/08 05:26:23;;;;;;;2.67;1.97;;;20.60;59.40;;;;;;6187796;23;20395;-86
2022/11/08 05:28:51;;;;;;;3.97;2.23;;;20.60;59.40;;;;;;6187421;23;20390;-86
2022/11/08 05:31:18;;;;;;;3.10;2.20;;;20.60;59.40;;;;;;6187647;23;20390;-87
2022/11/08 05:33:46;;;;;;;3.13;2.60;;;20.60;59.40;;;;;;6213437;23;20372;-86
2022/11/08 05:36:14;;;;;;;3.77;2.30;;;20.60;59.40;;;;;;6213452;23;20430;-86
2022/11/08 05:38:40;;;;;;;4.83;2.93;;;20.60;59.40;;;;;;6188247;23;20359;-85
2022/11/08 05:41:17;;;;;;;3.80;2.40;;;20.60;59.40;;;;;;6213241;23;20371;-86
2022/11/08 05:43:46;;;;;;;3.30;2.30;;;20.60;59.40;;;;;;6187777;23;20437;-85
2022/11/08 05:46:13;;;;;;;3.97;2.60;;;20.60;59.40;;;;;;6213422;23;20367;-86
2022/11/08 05:48:41;;;;;;;3.53;2.63;;;20.60;59.40;;;;;;6187644;23;20406;-86
2022/11/08 05:51:07;;;;;;;5.10;2.07;;;20.60;59.40;;;;;;6187725;23;20394;-86
2022/11/08 05:53:33;;;;;;;2.60;2.17;;;20.60;59.40;;;;;;6213112;23;20372;-86
2022/11/08 05:56:01;;;;;;;3.27;2.23;;;20.60;59.40;;;;;;6187399;23;20438;-86
2022/11/08 05:58:27;;;;;;;4.87;2.60;;;20.60;59.50;;;;;;6213207;23;20167;-86
2022/11/08 06:01:09;;;;;;;3.70;2.50;;;20.60;59.50;;;;;;6213430;23;20355;-87
2022/11/08 06:03:38;;;;;;;3.07;2.07;;;20.60;59.40;;;;;;6187600;23;20371;-86
2022/11/08 06:06:07;;;;;;;2.83;2.53;;;20.60;59.50;;;;;;6187420;23;20379;-87
2022/11/08 06:08:34;;;;;;;3.27;2.43;;;20.60;59.50;;;;;;6187153;23;20405;-87
2022/11/08 06:11:05;;;;;;;3.43;2.20;;;20.60;59.50;;;;;;6187471;23;20426;-86
2022/11/08 06:13:38;;;;;;;3.50;2.10;;;20.60;60.00;;;;;;6187582;23;20462;-86
2022/11/08 06:16:12;;;;;;;3.90;2.40;;;20.60;59.50;;;;;;6212711;23;20426;-86
2022/11/08 06:18:39;;;;;;;2.90;2.17;;;20.60;59.50;;;;;;6213299;23;20370;-86
2022/11/08 06:21:12;;;;;;;3.90;2.70;;;20.60;59.50;;;;;;6213387;23;20355;-87
2022/11/08 06:23:38;;;;;;;3.10;2.27;;;20.60;59.50;;;;;;6187682;23;20371;-87
2022/11/08 06:26:08;;;;;;;3.33;2.40;;;20.60;59.50;;;;;;6213150;23;20360;-86
2022/11/08 06:28:37;;;;;;;3.60;3.00;;;20.60;59.50;;;;;;6187250;23;20371;-87
2022/11/08 06:31:06;;;;;;;4.30;2.70;;;20.60;59.50;;;;;;6213187;23;20366;-87
2022/11/08 06:33:41;;;;;;;2.87;2.43;;;20.70;59.60;;;;;;6187398;23;20371;-87
2022/11/08 06:36:07;;;;;;;3.00;2.40;;;20.70;59.60;;;;;;6187257;23;20474;-87
2022/11/08 06:38:33;;;;;;;3.47;2.37;;;20.60;59.50;;;;;;6186726;23;20367;-86
2022/11/08 06:41:04;;;;;;;2.47;2.10;;;20.60;59.50;;;;;;6212616;23;20180;-86
2022/11/08 06:43:32;;;;;;;3.50;2.57;;;20.70;59.60;;;;;;6213022;23;20152;-86
2022/11/08 06:46:06;;;;;;;2.83;2.23;;;20.70;59.50;;;;;;6186622;23;20398;-87
2022/11/08 06:48:34;;;;;;;6.23;2.00;;;20.70;59.50;;;;;;6187033;23;20375;-87
2022/11/08 06:51:14;;;;;;;3.00;2.57;;;20.70;59.50;;;;;;6186201;23;20379;-86
2022/11/08 06:54:06;;;;;;;3.23;2.10;;;20.70;59.50;;;;;;6187253;23;20375;-87
2022/11/08 06:56:33;;;;;;;4.23;3.10;;;20.70;59.50;;;;;;6168931;23;20370;-86
2022/11/08 06:58:59;;;;;;;3.37;2.00;;;20.70;59.50;;;;;;6186988;23;20387;-86
2022/11/08 07:01:36;;;;;;;2.73;2.10;;;20.70;59.50;;;;;;6212492;23;20367;-86
2022/11/08 07:04:34;;;;;;;3.87;2.53;;;20.70;59.50;;;;;;6186779;23;20506;-87
2022/11/08 07:07:07;;;;;;;3.47;2.47;;;20.80;59.60;;;;;;6195227;23;20394;-88
2022/11/08 07:09:35;;;;;;;2.17;1.70;;;20.70;59.50;;;;;;6212068;23;20463;-88
2022/11/08 07:12:01;;;;;;;4.27;2.30;;;20.80;59.60;;;;;;6186568;23;20184;-86
2022/11/08 07:14:27;;;;;;;2.50;1.83;;;20.80;59.60;;;;;;6186660;23;20419;-88
2022/11/08 07:16:53;;;;;;;3.20;1.87;;;20.80;59.60;;;;;;6186425;23;20208;-88
2022/11/08 07:19:19;;;;;;;3.13;2.40;;;20.80;59.60;;;;;;6186265;23;20197;-87
2022/11/08 07:21:45;;;;;;;3.20;2.40;;;20.80;59.60;;;;;;6186924;23;20203;-87
2022/11/08 07:24:14;;;;;;;3.87;2.33;;;20.80;59.60;;;;;;6186632;23;20139;-88
2022/11/08 07:26:39;;;;;;;2.40;1.97;;;20.80;59.60;;;;;;6212512;23;20378;-87
2022/11/08 07:29:07;;;;;;;3.10;2.03;;;20.80;59.60;;;;;;6186426;23;20438;-88
2022/11/08 07:31:58;;;;;;;6.97;3.30;;;20.80;59.60;;;;;;6212353;23;20139;-87
2022/11/08 07:34:35;;;;;;;;;;;;;;;;;;;;;
2022/11/08 07:37:09;;;;;;;3.60;2.10;;;20.80;59.60;;;;;;6179700;23;20367;-87
2022/11/08 07:40:16;;;;;;;4.30;2.00;;;20.80;59.60;;;;;;6186182;23;20375;-87
2022/11/08 07:42:42;;;;;;;2.57;1.90;;;20.80;59.60;;;;;;6186099;23;20632;-87
2022/11/08 07:45:28;;;;;;;2.43;1.90;;;20.80;59.60;;;;;;6186288;23;20375;-88
2022/11/08 07:48:07;;;;;;;2.47;1.80;;;20.80;59.60;;;;;;6186378;23;20446;-88
2022/11/08 07:54:19;;;;;;;2.57;1.90;;;20.80;59.60;;;;;;6186815;23;20395;-88
2022/11/08 07:56:54;;;;;;;1.83;1.60;;;20.90;59.70;;;;;;6211314;23;20375;-87
2022/11/08 07:59:26;;;;;;;2.53;2.00;;;20.80;59.70;;;;;;6185313;23;20391;-86
2022/11/08 08:02:01;;;;;;;;;;;;;;;;;;;;;
2022/11/08 08:04:30;;;;;;;2.50;2.13;;;20.80;59.60;;;;;;6212103;23;20343;-88
2022/11/08 08:07:26;;;;;;;;;;;;;;;;;;;;;
2022/11/08 08:10:14;;;;;;;;;;;;;;;;;;;;;
2022/11/08 08:13:13;;;;;;;2.60;1.97;;;20.90;59.60;;;;;;6212300;23;20366;-88
2022/11/08 08:15:38;;;;;;;2.33;1.57;;;20.90;59.60;;;;;;6208016;23;20425;-88
2022/11/08 08:18:08;;;;;;;2.43;1.90;;;20.90;59.60;;;;;;6186621;23;20367;-88
2022/11/08 08:21:03;;;;;;;3.17;2.27;;;20.90;59.60;;;;;;6186003;23;20375;-87
2022/11/08 08:23:29;;;;;;;3.53;2.47;;;20.90;59.60;;;;;;6211431;23;20450;-88
2022/11/08 08:25:58;;;;;;;3.17;2.10;;;20.90;59.60;;;;;;6186111;23;20406;-87
2022/11/08 08:31:50;;;;;;;;;;;;;;;;;;;;;
2022/11/08 08:34:18;;;;;;;3.30;2.10;;;20.90;59.60;;;;;;6212203;23;20378;-88
2022/11/08 08:36:44;;;;;;;3.13;2.43;;;20.90;59.60;;;;;;6186159;23;20375;-87
2022/11/08 08:39:25;;;;;;;3.93;2.30;;;20.90;59.50;;;;;;6186174;23;20382;-88
2022/11/08 08:42:07;;;;;;;3.83;2.07;;;21.00;59.60;;;;;;6188248;23;20374;-88
2022/11/08 08:44:51;;;;;;;2.97;2.20;;;21.00;59.60;;;;;;6188232;23;20363;-88
2022/11/08 08:47:20;;;;;;;3.47;2.73;;;21.00;59.60;;;;;;6188311;23;20358;-88
2022/11/08 09:00:27;;;;;;;;;;;;;;;;;;;;;
2022/11/08 09:03:44;;;;;;;2.33;1.80;;;21.00;59.60;;;;;;5925520;24;20356;-88
2022/11/08 09:06:10;;;;;;;2.57;2.13;;;21.00;59.60;;;;;;5902692;24;20497;-88
2022/11/08 09:12:13;;;;;;;2.30;1.90;;;21.00;59.60;;;;;;5925481;24;20162;-88
2022/11/08 09:14:41;;;;;;;3.33;2.20;;;21.00;59.60;;;;;;5925463;24;20461;-88
2022/11/08 09:17:07;;;;;;;3.60;2.00;;;21.00;59.60;;;;;;5925269;24;20373;-88
2022/11/08 09:19:33;;;;;;;2.27;1.63;;;21.00;59.60;;;;;;5925440;24;20371;-88
2022/11/08 09:21:58;;;;;;;2.10;1.83;;;21.00;59.60;;;;;;5926940;23;20170;-88
2022/11/08 09:24:47;;;;;;;2.67;2.00;;;21.00;59.60;;;;;;6013052;23;20227;-88
2022/11/08 09:27:13;;;;;;;2.43;1.33;;;21.00;59.50;;;;;;6013180;23;20143;-87
2022/11/08 09:29:41;;;;;;;2.50;1.70;;;21.00;59.50;;;;;;6013289;23;20377;-88
2022/11/08 09:32:16;;;;;;;2.00;1.60;;;21.00;59.50;;;;;;6012967;23;20156;-88
2022/11/08 09:34:42;;;;;;;2.00;1.80;;;21.00;59.50;;;;;;6065264;23;20449;-87
2022/11/08 09:37:26;;;;;;;2.40;1.87;;;21.00;59.50;;;;;;6094248;23;20379;-88
2022/11/08 09:40:28;;;;;;;2.23;1.43;;;21.00;59.50;;;;;;6176803;23;20143;-87
2022/11/08 09:50:05;;;;;;;2.00;1.70;;;21.00;59.60;;;;;;6064915;23;20358;-87
2022/11/08 09:52:34;;;;;;;2.33;1.57;;;21.00;59.60;;;;;;6040869;23;20392;-87
2022/11/08 09:55:30;;;;;;;3.03;2.07;;;21.00;59.60;;;;;;6041120;23;20498;-87
2022/11/08 09:58:21;;;;;;;2.27;1.80;;;21.00;59.60;;;;;;6064711;23;20363;-89
2022/11/08 10:00:50;;;;;;;2.33;1.47;;;21.00;59.60;;;;;;6041521;23;20428;-87
2022/11/08 10:03:22;;;;;;;2.20;1.80;;;21.00;59.60;;;;;;6037283;23;20469;-87
2022/11/08 10:06:08;;;;;;;2.40;1.87;;;21.00;59.60;;;;;;6040977;23;20392;-87
2022/11/08 10:08:57;;;;;;;2.90;2.20;;;21.00;59.60;;;;;;6064871;23;20451;-88
2022/11/08 10:11:50;;;;;;;2.03;1.80;;;21.00;59.60;;;;;;6041284;23;20387;-87
2022/11/08 10:14:50;;;;;;;2.27;1.87;;;21.00;59.60;;;;;;6041231;23;20570;-88
2022/11/08 10:17:40;;;;;;;2.30;1.70;;;21.00;59.60;;;;;;6040834;23;20384;-87
2022/11/08 10:20:31;;;;;;;3.40;1.93;;;21.00;59.60;;;;;;6064612;23;20363;-87
2022/11/08 10:23:36;;;;;;;2.63;1.90;;;21.00;59.60;;;;;;6119359;23;20375;-88
2022/11/08 10:26:10;;;;;;;3.70;1.90;;;21.00;59.60;;;;;;6206906;23;20367;-87
2022/11/08 10:32:18;;;;;;;3.27;1.63;;;21.00;59.60;;;;;;6212988;23;20371;-87
2022/11/08 10:35:08;;;;;;;4.10;1.80;;;21.00;59.60;;;;;;6187652;23;20419;-87
2022/11/08 10:37:48;;;;;;;2.17;1.40;;;21.00;59.70;;;;;;6188247;23;20363;-87
2022/11/08 10:40:19;;;;;;;3.80;2.03;;;21.00;59.60;;;;;;6187355;23;20367;-88
2022/11/08 10:42:49;;;;;;;4.20;1.80;;;21.00;59.60;;;;;;6187091;23;20378;-88
2022/11/08 10:51:24;;;;;;;1.80;1.50;;;21.00;59.60;;;;;;6212542;23;20771;-87
2022/11/08 10:53:53;;;;;;;2.40;1.50;;;21.00;59.60;;;;;;6186821;23;20383;-88
2022/11/08 10:56:27;;;;;;;2.50;1.77;;;21.00;59.60;;;;;;6186672;23;20203;-88
2022/11/08 10:59:24;;;;;;;1.97;1.57;;;21.00;59.40;;;;;;6186892;23;20827;-88
2022/11/08 11:02:08;;;;;;;2.77;1.67;;;21.00;59.60;;;;;;6186734;23;20375;-87
2022/11/08 11:04:49;;;;;;;;;;;;;;;;;;;;;
2022/11/08 11:07:39;;;;;;;2.00;1.40;;;21.00;59.60;;;;;;6212359;23;20355;-88
2022/11/08 11:10:43;;;;;;;2.80;1.83;;;21.00;59.60;;;;;;6186495;23;20402;-89
2022/11/08 11:13:14;;;;;;;3.63;1.70;;;21.00;59.60;;;;;;6212758;23;20717;-87
2022/11/08 11:22:08;;;;;;;3.03;2.03;;;21.00;59.60;;;;;;6212322;23;20382;-87
2022/11/08 11:24:49;;;;;;;5.87;2.10;;;21.00;59.60;;;;;;6186493;23;20386;-87
2022/11/08 11:27:48;;;;;;;2.40;1.87;;;21.00;59.60;;;;;;6186641;23;20379;-86
2022/11/08 11:30:32;;;;;;;3.47;2.03;;;21.00;59.60;;;;;;6186674;23;20394;-88
2022/11/08 11:33:20;;;;;;;2.60;1.97;;;21.00;59.60;;;;;;6186280;23;20376;-87
2022/11/08 11:39:48;;;;;;;4.03;2.30;;;21.00;59.60;;;;;;6212587;23;20366;-87
2022/11/08 11:42:16;;;;;;;3.40;2.37;;;21.00;59.60;;;;;;6211260;23;20447;-88
2022/11/08 11:45:31;;;;;;;4.20;3.80;;;21.00;59.70;;;;;;6186311;23;20375;-87
2022/11/08 11:48:01;;;;;;;7.87;2.73;;;21.00;59.70;;;;;;6166102;23;20383;-87
2022/11/08 11:50:45;;;;;;;6.67;2.63;;;21.00;59.70;;;;;;6186656;23;20375;-87
2022/11/08 11:53:42;;;;;;;6.80;2.83;;;21.00;59.70;;;;;;6212134;23;20363;-87
2022/11/08 11:56:24;;;;;;;5.60;2.77;;;21.10;59.70;;;;;;6163243;23;20411;-87
2022/11/08 11:59:24;;;;;;;4.63;2.60;;;21.10;59.70;;;;;;6212240;23;20353;-87
2022/11/08 12:02:14;;;;;;;;;;;;;;;;;;;;;
2022/11/08 12:04:43;;;;;;;4.50;2.30;;;21.10;59.70;;;;;;6212365;23;20359;-86
2022/11/08 12:17:27;;;;;;;7.57;3.10;;;21.10;59.80;;;;;;6213190;23;20454;-87
2022/11/08 12:20:20;;;;;;;3.97;2.80;;;21.10;59.80;;;;;;6188686;23;20407;-86
2022/11/08 12:23:23;;;;;;;8.67;3.10;;;21.10;59.80;;;;;;6188501;23;20367;-86
2022/11/08 12:26:32;;;;;;;7.70;3.10;;;21.10;59.90;;;;;;6188575;23;20429;-86
2022/11/08 12:29:26;;;;;;;6.83;2.73;;;21.10;59.90;;;;;;6214238;23;20360;-86
2022/11/08 12:32:09;;;;;;;7.53;3.07;;;21.10;59.90;;;;;;6214267;23;20355;-86
2022/11/08 12:35:35;;;;;;;5.30;3.20;;;21.10;59.90;;;;;;6214092;23;20427;-86
2022/11/08 12:49:17;;;;;;;6.10;3.10;;;21.10;60.00;;;;;;5926036;24;20405;-87
2022/11/08 12:51:57;;;;;;;5.73;3.53;;;21.10;60.00;;;;;;5925759;24;20396;-86
2022/11/08 12:55:46;;;;;;;6.90;3.23;;;21.10;60.00;;;;;;5926014;24;20391;-87
2022/11/08 12:58:30;;;;;;;7.13;3.37;;;21.10;60.00;;;;;;5841128;24;20450;-87
2022/11/08 13:01:01;;;;;;;7.30;3.53;;;21.10;60.00;;;;;;5845126;24;20379;-86
2022/11/08 13:03:38;;;;;;;6.93;4.00;;;21.10;60.00;;;;;;5920866;24;20413;-86
2022/11/08 13:06:19;;;;;;;8.37;3.37;;;21.10;60.00;;;;;;5925526;24;20468;-87
2022/11/08 13:09:14;;;;;;;4.87;3.67;;;21.20;60.00;;;;;;5930540;24;20383;-86
2022/11/08 13:12:16;;;;;;;6.83;3.30;;;21.20;60.00;;;;;;5953112;24;20383;-86
2022/11/08 13:14:51;;;;;;;6.03;3.53;;;21.20;60.00;;;;;;5953222;24;20458;-86
2022/11/08 13:17:21;;;;;;;6.77;4.50;;;21.20;60.00;;;;;;6041111;23;20378;-87
2022/11/08 13:19:53;;;;;;;7.67;3.90;;;21.10;59.90;;;;;;6070262;23;20379;-86
2022/11/08 13:22:57;;;;;;;6.53;3.73;;;21.10;59.90;;;;;;6094350;23;20355;-86
2022/11/08 13:25:25;;;;;;;8.03;3.60;;;21.20;60.00;;;;;;6010376;23;20388;-86
2022/11/08 13:28:30;;;;;;;7.40;3.33;;;21.20;60.00;;;;;;6036953;23;20433;-87
2022/11/08 13:31:22;;;;;;;6.30;4.00;;;21.20;60.00;;;;;;6042158;23;20416;-86
2022/11/08 13:34:03;;;;;;;6.00;2.97;;;21.20;59.90;;;;;;6041228;23;20450;-86
2022/11/08 13:37:07;;;;;;;11.23;4.03;;;21.20;59.90;;;;;;6041678;23;20423;-86
2022/11/08 13:40:10;;;;;;;8.63;3.20;;;21.20;59.90;;;;;;6052909;23;20367;-86
2022/11/08 13:43:23;;;;;;;9.43;4.30;;;21.20;59.90;;;;;;6041509;23;20390;-87
2022/11/08 13:49:21;;;;;;;8.17;4.40;;;21.20;59.90;;;;;;6065634;23;20343;-86
2022/11/08 13:52:24;;;;;;;6.90;4.50;;;21.20;60.00;;;;;;6041504;23;20415;-86
2022/11/08 13:58:40;;;;;;;6.73;3.33;;;21.20;59.90;;;;;;6065489;23;20366;-87
2022/11/08 14:01:34;;;;;;;7.70;4.40;;;21.30;60.00;;;;;;6041650;23;20360;-87
2022/11/08 14:04:10;;;;;;;;;;;;;;;;;;;;;
2022/11/08 14:07:01;;;;;;;9.10;4.60;;;21.20;60.00;;;;;;6213589;23;20350;-86
2022/11/08 14:09:35;;;;;;;10.17;3.97;;;21.20;60.00;;;;;;6187866;23;20376;-86
2022/11/08 14:12:12;;;;;;;6.00;3.50;;;21.30;60.00;;;;;;6187920;23;20371;-86
2022/11/08 14:15:11;;;;;;;10.67;4.07;;;21.30;60.00;;;;;;6187854;23;20411;-85
2022/11/08 14:18:38;;;;;;;;;;;;;;;;;;;;;
2022/11/08 14:21:10;;;;;;;6.43;3.97;;;21.30;60.00;;;;;;6156168;23;20390;-87
2022/11/08 14:23:48;;;;;;;8.43;3.37;;;21.30;60.00;;;;;;6213363;23;20332;-86
2022/11/08 14:26:39;;;;;;;7.10;3.70;;;21.30;60.00;;;;;;6187511;23;20367;-87
2022/11/08 14:32:32;;;;;;;6.77;3.53;;;21.30;59.90;;;;;;6212669;23;20442;-87
2022/11/08 14:35:24;;;;;;;6.90;4.37;;;21.30;59.90;;;;;;6212711;23;20398;-87
2022/11/08 14:38:00;;;;;;;7.57;3.23;;;21.30;59.90;;;;;;6185946;23;20379;-87
2022/11/08 14:40:31;;;;;;;6.50;3.90;;;21.30;59.90;;;;;;6187037;23;20344;-87
2022/11/08 14:43:13;;;;;;;4.63;3.57;;;21.30;59.90;;;;;;6212877;23;20375;-87
2022/11/08 14:45:52;;;;;;;4.80;3.17;;;21.30;59.90;;;;;;6186767;23;20372;-86
2022/11/08 14:48:31;;;;;;;9.23;3.77;;;21.30;59.90;;;;;;6186929;23;20404;-87
2022/11/08 14:51:01;;;;;;;9.20;3.20;;;21.40;60.00;;;;;;6212699;23;20390;-86
2022/11/08 14:53:35;;;;;;;8.20;3.90;;;21.40;60.00;;;;;;6212665;23;20403;-86
2022/11/08 14:56:31;;;;;;;7.80;3.20;;;21.40;59.90;;;;;;6212922;23;20474;-86
2022/11/08 15:06:12;;;;;;;8.43;3.73;;;21.40;60.00;;;;;;6007906;24;20406;-87
2022/11/08 15:09:18;;;;;;;6.47;3.30;;;21.40;60.10;;;;;;6007584;24;20381;-87
2022/11/08 15:12:35;;;;;;;8.73;3.40;;;21.30;60.00;;;;;;5997105;24;20393;-87
2022/11/08 15:15:32;;;;;;;;;;;;;;;;;;;;;
2022/11/08 15:52:07;;;;;;;5.13;3.33;;;21.30;60.20;;;;;;5861942;24;20375;-88
2022/11/08 15:54:39;;;;;;;6.37;3.30;;;21.20;60.10;;;;;;5847729;24;20382;-88
2022/11/08 19:56:46;;;;;;;;;;;;;;;;;;;;;
2022/11/08 20:00:03;;;;;;;;;;;;;;;;;;;;;
2022/11/08 20:03:02;;;;;;;5.07;2.90;;;21.20;60.00;;;;;;6212242;23;20355;-85
2022/11/08 20:06:17;;;;;;;5.33;2.97;;;21.20;60.00;;;;;;6185850;23;20431;-86